Time;durP1;ratioP1;P1;durP2;ratioP2;P2;SDS_P1;SDS_P2;PMS_P1;PMS_P2;Temp;Humidity;BMP_temperature;BMP_pressure;BME280_temperature;BME280_humidity;BME280_pressure;Samples;Min_cycle;Max_cycle;Signal;HPM_P1;HPM_P2
2021/01/25 00:00:18;;;;;;;7.30;4.80;;;5.50;99.90;;;;;;4171349;28;20320;-50
2021/01/25 00:02:19;;;;;;;8.27;4.70;;;5.60;99.90;;;;;;4171512;28;21126;-48
2021/01/25 00:04:20;;;;;;;7.10;4.03;;;5.60;99.90;;;;;;4173455;28;20746;-49
2021/01/25 00:06:21;;;;;;;8.00;4.03;;;5.60;99.90;;;;;;4175199;28;20320;-46
2021/01/25 00:08:22;;;;;;;6.83;4.07;;;5.60;99.90;;;;;;4174747;28;20327;-51
2021/01/25 00:10:23;;;;;;;8.47;5.20;;;5.70;99.90;;;;;;4173814;28;20332;-49
2021/01/25 00:12:25;;;;;;;7.43;4.97;;;5.70;99.90;;;;;;4174566;28;20282;-49
2021/01/25 00:14:26;;;;;;;6.63;3.80;;;5.70;99.90;;;;;;4174793;28;20282;-48
2021/01/25 00:16:27;;;;;;;7.43;3.20;;;5.70;99.90;;;;;;4173839;28;20281;-44
2021/01/25 00:18:28;;;;;;;7.67;4.47;;;5.70;99.90;;;;;;4174836;28;21207;-45
2021/01/25 00:20:30;;;;;;;7.80;3.93;;;5.70;99.90;;;;;;4174449;28;20677;-49
2021/01/25 00:22:31;;;;;;;5.70;3.73;;;5.70;99.90;;;;;;4174750;28;20689;-49
2021/01/25 00:24:32;;;;;;;5.70;3.73;;;5.70;99.90;;;;;;4174577;28;20282;-49
2021/01/25 00:26:33;;;;;;;6.77;3.27;;;5.70;99.90;;;;;;4174345;28;20281;-45
2021/01/25 00:28:34;;;;;;;6.63;4.23;;;5.70;99.90;;;;;;4174933;28;20408;-46
2021/01/25 00:30:35;;;;;;;5.70;3.63;;;5.70;99.90;;;;;;4173622;28;20833;-48
2021/01/25 00:32:37;;;;;;;9.13;4.07;;;5.70;99.90;;;;;;4174091;28;20773;-48
2021/01/25 00:34:39;;;;;;;6.60;3.80;;;5.70;99.90;;;;;;4174610;28;20336;-47
2021/01/25 00:36:40;;;;;;;7.13;4.83;;;5.70;99.90;;;;;;4174561;28;20269;-45
2021/01/25 00:38:41;;;;;;;6.83;4.50;;;5.70;99.90;;;;;;4174375;28;20278;-46
2021/01/25 00:40:43;;;;;;;6.73;3.40;;;5.70;99.90;;;;;;4174802;28;20266;-48
2021/01/25 00:42:44;;;;;;;5.83;3.60;;;5.70;99.90;;;;;;4173960;28;20309;-50
2021/01/25 00:44:45;;;;;;;5.80;3.47;;;5.70;99.90;;;;;;4173690;28;20332;-52
2021/01/25 00:46:46;;;;;;;7.00;3.90;;;5.70;99.90;;;;;;4173669;28;20274;-48
2021/01/25 00:48:47;;;;;;;7.13;4.03;;;5.70;99.90;;;;;;4174606;28;20266;-47
2021/01/25 00:50:49;;;;;;;6.83;4.00;;;5.60;99.90;;;;;;4173798;28;20294;-44
2021/01/25 00:52:50;;;;;;;8.77;4.20;;;5.60;99.90;;;;;;4174184;28;20266;-45
2021/01/25 00:54:51;;;;;;;6.93;4.30;;;5.60;99.90;;;;;;4176645;28;20266;-50
2021/01/25 00:56:52;;;;;;;8.63;4.80;;;5.70;99.90;;;;;;4174215;28;20693;-51
2021/01/25 00:58:53;;;;;;;8.83;5.07;;;5.60;99.90;;;;;;4157958;28;20674;-47
2021/01/25 01:00:55;;;;;;;11.83;4.53;;;5.60;99.90;;;;;;4157832;28;20482;-50
2021/01/25 01:02:56;;;;;;;7.27;4.00;;;5.60;99.90;;;;;;4157795;28;20272;-49
2021/01/25 01:04:57;;;;;;;9.87;4.30;;;5.60;99.90;;;;;;4156141;28;20275;-49
2021/01/25 01:06:58;;;;;;;8.10;4.00;;;5.60;99.90;;;;;;4156712;28;20274;-47
2021/01/25 01:08:59;;;;;;;6.80;4.20;;;5.60;99.90;;;;;;4158120;28;20763;-46
2021/01/25 01:11:01;;;;;;;9.17;3.80;;;5.60;99.90;;;;;;4157038;28;20348;-46
2021/01/25 01:13:02;;;;;;;7.93;4.70;;;5.50;99.90;;;;;;4157108;28;20278;-44
2021/01/25 01:15:10;;;;;;;9.00;4.83;;;5.50;99.90;;;;;;4156891;28;21148;-47
2021/01/25 01:17:11;;;;;;;8.70;4.17;;;5.50;99.90;;;;;;4160306;28;20274;-46
2021/01/25 01:19:12;;;;;;;7.07;4.47;;;5.50;99.90;;;;;;4171708;28;20648;-49
2021/01/25 01:21:13;;;;;;;11.03;4.63;;;5.50;99.90;;;;;;4173484;28;20290;-48
2021/01/25 01:23:14;;;;;;;7.83;4.67;;;5.40;99.90;;;;;;4173038;28;20266;-47
2021/01/25 01:25:16;;;;;;;5.80;3.63;;;5.40;99.90;;;;;;4173564;28;20744;-45
2021/01/25 01:27:17;;;;;;;31.07;6.10;;;5.40;99.90;;;;;;4173553;28;20332;-43
2021/01/25 01:29:18;;;;;;;8.00;4.07;;;5.40;99.90;;;;;;4173607;28;20270;-45
2021/01/25 01:31:19;;;;;;;7.17;3.87;;;5.30;99.90;;;;;;4173505;28;20363;-45
2021/01/25 01:33:20;;;;;;;6.83;3.90;;;5.30;99.90;;;;;;4173298;28;20631;-47
2021/01/25 01:35:22;;;;;;;6.77;4.20;;;5.30;99.90;;;;;;4173666;28;20619;-51
2021/01/25 01:37:23;;;;;;;7.10;4.40;;;5.30;99.90;;;;;;4172672;28;20316;-48
2021/01/25 01:39:24;;;;;;;10.07;4.00;;;5.20;99.90;;;;;;4173335;28;20278;-44
2021/01/25 01:41:25;;;;;;;8.73;4.73;;;5.30;99.90;;;;;;4173653;28;20277;-48
2021/01/25 01:43:27;;;;;;;7.47;4.20;;;5.30;99.90;;;;;;4172918;28;20294;-45
2021/01/25 01:45:28;;;;;;;6.53;3.70;;;5.30;99.90;;;;;;4173457;28;20269;-44
2021/01/25 01:47:31;;;;;;;7.87;3.63;;;5.40;99.90;;;;;;4172977;28;20359;-48
2021/01/25 01:49:33;;;;;;;6.60;4.33;;;5.40;99.90;;;;;;4173220;28;20344;-47
2021/01/25 01:51:39;;;;;;;6.27;3.70;;;5.30;99.90;;;;;;4172330;28;20320;-47
2021/01/25 01:53:40;;;;;;;9.97;4.60;;;5.30;99.90;;;;;;4173144;28;20274;-49
2021/01/25 01:55:42;;;;;;;8.27;4.40;;;5.30;99.90;;;;;;4172407;28;20285;-46
2021/01/25 01:57:46;;;;;;;7.80;4.70;;;5.30;99.90;;;;;;4173461;28;20374;-44
2021/01/25 01:59:47;;;;;;;8.90;4.60;;;5.30;99.90;;;;;;4173292;28;20278;-45
2021/01/25 02:01:49;;;;;;;8.27;4.50;;;5.30;99.90;;;;;;4172781;28;20677;-51
2021/01/25 02:03:50;;;;;;;9.37;4.10;;;5.30;99.90;;;;;;4173272;28;20262;-46
2021/01/25 02:05:54;;;;;;;8.53;4.63;;;5.30;99.90;;;;;;4173096;28;20270;-49
2021/01/25 02:07:57;;;;;;;6.73;4.13;;;5.40;99.90;;;;;;4172659;28;20706;-49
2021/01/25 02:10:01;;;;;;;10.20;4.40;;;5.50;99.90;;;;;;4173464;28;20270;-47
2021/01/25 02:12:04;;;;;;;8.70;4.33;;;5.40;99.90;;;;;;4172728;28;20301;-48
2021/01/25 02:14:06;;;;;;;7.20;4.53;;;5.40;99.90;;;;;;4172706;28;20315;-49
2021/01/25 02:16:07;;;;;;;8.87;3.90;;;5.50;99.90;;;;;;4172365;28;20319;-46
2021/01/25 02:18:09;;;;;;;8.23;4.20;;;5.50;99.90;;;;;;4172987;28;20724;-45
2021/01/25 02:20:29;;;;;;;11.13;4.83;;;5.50;99.90;;;;;;4172023;28;20274;-51
2021/01/25 02:22:36;;;;;;;7.72;4.32;;;5.60;99.90;;;;;;4172471;28;20262;-51
2021/01/25 02:24:45;;;;;;;10.27;5.30;;;5.50;99.90;;;;;;4172741;28;20082;-46
2021/01/25 02:27:25;;;;;;;8.37;3.97;;;5.60;99.90;;;;;;4171631;28;20263;-46
2021/01/25 02:29:27;;;;;;;8.70;4.47;;;5.60;99.90;;;;;;4172517;28;20284;-45
2021/01/25 02:31:29;;;;;;;8.00;4.23;;;5.60;99.90;;;;;;4170977;28;20752;-51
2021/01/25 02:33:34;;;;;;;7.83;4.40;;;5.60;99.90;;;;;;4172459;28;20282;-46
2021/01/25 02:35:36;;;;;;;9.67;3.67;;;5.60;99.90;;;;;;4172426;28;20278;-50
2021/01/25 02:37:39;;;;;;;9.90;4.70;;;5.70;99.90;;;;;;4172594;28;20762;-47
2021/01/25 02:39:41;;;;;;;6.23;3.90;;;5.70;99.90;;;;;;4173176;28;20278;-47
2021/01/25 02:41:43;;;;;;;11.30;4.60;;;5.70;99.90;;;;;;4171905;28;20282;-47
2021/01/25 02:43:45;;;;;;;7.27;4.30;;;5.80;99.90;;;;;;4172320;28;21159;-44
2021/01/25 02:45:48;;;;;;;9.37;4.90;;;5.80;99.90;;;;;;4172818;28;20270;-47
2021/01/25 02:47:50;;;;;;;5.47;3.80;;;5.80;99.90;;;;;;4172613;28;20270;-47
2021/01/25 02:49:51;;;;;;;8.63;4.37;;;5.80;99.90;;;;;;4172294;28;20669;-45
2021/01/25 02:51:52;;;;;;;8.47;4.17;;;5.80;99.90;;;;;;4172463;28;20347;-46
2021/01/25 02:53:54;;;;;;;5.53;3.60;;;5.80;99.90;;;;;;4172508;28;20266;-47
2021/01/25 02:55:56;;;;;;;10.33;4.87;;;5.80;99.90;;;;;;4171133;28;20286;-46
2021/01/25 02:57:59;;;;;;;6.67;4.10;;;5.80;99.90;;;;;;4171976;28;20331;-48
2021/01/25 03:00:01;;;;;;;8.93;4.53;;;5.80;99.90;;;;;;4172319;28;20277;-47
2021/01/25 03:02:04;;;;;;;6.10;3.70;;;5.80;99.90;;;;;;4171376;28;20271;-50
2021/01/25 03:04:06;;;;;;;6.33;3.50;;;5.80;99.90;;;;;;4172414;28;20604;-48
2021/01/25 03:06:10;;;;;;;4.77;3.07;;;5.80;99.90;;;;;;4172243;28;20266;-47
2021/01/25 03:08:12;;;;;;;7.67;3.80;;;5.80;99.90;;;;;;4172162;28;20808;-46
2021/01/25 03:10:14;;;;;;;5.93;3.43;;;5.90;99.90;;;;;;4171446;28;20266;-46
2021/01/25 03:12:15;;;;;;;6.73;3.70;;;5.90;99.90;;;;;;4172793;28;20339;-46
2021/01/25 03:14:17;;;;;;;7.57;4.17;;;5.90;99.90;;;;;;4172352;28;20282;-44
2021/01/25 03:16:18;;;;;;;9.03;4.10;;;5.90;99.90;;;;;;4172253;28;20903;-52
2021/01/25 03:18:20;;;;;;;6.37;3.20;;;5.90;99.90;;;;;;4172282;28;20328;-50
2021/01/25 03:20:21;;;;;;;4.93;3.07;;;5.90;99.90;;;;;;4172076;28;20591;-47
2021/01/25 03:22:23;;;;;;;7.10;4.53;;;5.90;99.90;;;;;;4171962;28;20273;-46
2021/01/25 03:24:24;;;;;;;7.83;4.00;;;5.90;99.90;;;;;;4172136;28;20308;-45
2021/01/25 03:26:25;;;;;;;7.90;3.83;;;5.80;99.90;;;;;;4172233;28;20319;-45
2021/01/25 03:28:26;;;;;;;10.97;4.50;;;5.80;99.90;;;;;;4172106;28;20254;-49
2021/01/25 03:30:27;;;;;;;6.03;3.43;;;5.80;99.90;;;;;;4172006;28;20266;-45
2021/01/25 03:32:29;;;;;;;8.10;3.33;;;5.80;99.90;;;;;;4171052;28;20823;-46
2021/01/25 03:34:30;;;;;;;6.90;3.40;;;5.90;99.90;;;;;;4172238;28;20332;-47
2021/01/25 03:36:31;;;;;;;5.27;3.50;;;5.90;99.90;;;;;;4172184;28;20685;-50
2021/01/25 03:38:32;;;;;;;7.93;3.10;;;5.90;99.90;;;;;;4172578;28;20367;-46
2021/01/25 03:40:34;;;;;;;6.37;3.60;;;5.90;99.90;;;;;;4175987;28;20360;-45
2021/01/25 03:42:35;;;;;;;6.37;3.23;;;5.90;99.90;;;;;;4175464;28;20781;-48
2021/01/25 03:44:37;;;;;;;6.43;3.00;;;5.90;99.90;;;;;;4175007;28;20286;-45
2021/01/25 03:46:38;;;;;;;6.23;3.27;;;5.90;99.90;;;;;;4173938;28;20277;-46
2021/01/25 03:48:39;;;;;;;6.27;3.20;;;6.00;99.90;;;;;;4175461;28;20266;-45
2021/01/25 03:50:41;;;;;;;6.37;3.20;;;6.00;99.90;;;;;;4175239;28;20907;-45
2021/01/25 03:52:43;;;;;;;5.70;3.17;;;6.00;99.90;;;;;;4175159;28;20856;-47
2021/01/25 03:54:44;;;;;;;5.63;3.77;;;6.10;99.90;;;;;;4175147;28;20282;-46
2021/01/25 03:56:45;;;;;;;7.00;3.50;;;6.10;99.90;;;;;;4175122;28;20286;-45
2021/01/25 03:58:46;;;;;;;6.27;3.20;;;6.10;99.90;;;;;;4174977;28;20274;-48
2021/01/25 04:00:47;;;;;;;7.60;3.17;;;6.10;99.90;;;;;;4175362;28;20348;-46
2021/01/25 04:02:48;;;;;;;4.20;2.80;;;6.00;99.90;;;;;;4175082;28;20028;-48
2021/01/25 04:04:49;;;;;;;6.53;3.80;;;6.00;99.90;;;;;;4174885;28;20765;-53
2021/01/25 04:06:52;;;;;;;6.77;3.47;;;6.00;99.90;;;;;;4174846;28;20266;-47
2021/01/25 04:08:53;;;;;;;5.60;3.23;;;6.00;99.90;;;;;;4173637;28;20332;-50
2021/01/25 04:10:54;;;;;;;3.93;2.83;;;6.00;99.90;;;;;;4174683;28;20677;-48
2021/01/25 04:12:55;;;;;;;5.23;2.87;;;6.00;99.90;;;;;;4174595;28;20764;-44
2021/01/25 04:14:57;;;;;;;5.53;3.17;;;6.00;99.90;;;;;;4174424;28;20823;-51
2021/01/25 04:16:58;;;;;;;6.93;3.27;;;6.00;99.90;;;;;;4174676;28;20266;-47
2021/01/25 04:18:59;;;;;;;4.87;2.93;;;6.00;99.90;;;;;;4174529;28;20270;-46
2021/01/25 04:21:01;;;;;;;5.47;3.10;;;6.00;99.90;;;;;;4174454;28;20332;-47
2021/01/25 04:23:02;;;;;;;6.57;2.87;;;6.00;99.90;;;;;;4174374;28;20285;-45
2021/01/25 04:25:05;;;;;;;5.30;3.00;;;6.00;99.90;;;;;;4174530;28;20863;-50
2021/01/25 04:27:13;;;;;;;3.47;2.30;;;6.00;99.90;;;;;;4174526;28;20327;-47
2021/01/25 04:29:14;;;;;;;3.37;2.57;;;6.10;99.90;;;;;;4175195;28;20052;-46
2021/01/25 04:31:15;;;;;;;4.47;2.83;;;6.10;99.90;;;;;;4173753;28;20057;-50
2021/01/25 04:33:16;;;;;;;4.27;2.20;;;6.20;99.90;;;;;;4174467;28;20282;-45
2021/01/25 04:35:17;;;;;;;4.50;2.40;;;6.20;99.90;;;;;;4174742;28;20282;-46
2021/01/25 04:37:19;;;;;;;4.73;2.37;;;6.30;99.90;;;;;;4175151;28;20278;-53
2021/01/25 04:39:20;;;;;;;6.40;2.40;;;6.30;99.90;;;;;;4174484;28;20300;-45
2021/01/25 04:41:22;;;;;;;7.90;2.60;;;6.30;99.90;;;;;;4174472;28;20304;-44
2021/01/25 04:43:24;;;;;;;6.60;2.50;;;6.20;99.90;;;;;;4174193;28;20282;-45
2021/01/25 04:45:26;;;;;;;5.33;2.70;;;6.30;99.90;;;;;;4174196;28;20266;-46
2021/01/25 04:47:28;;;;;;;4.93;2.87;;;6.20;99.90;;;;;;4173557;28;20323;-45
2021/01/25 04:49:31;;;;;;;6.03;2.90;;;6.20;99.90;;;;;;4173229;28;20032;-48
2021/01/25 04:51:33;;;;;;;5.50;3.07;;;6.20;99.90;;;;;;4173100;28;20294;-48
2021/01/25 04:53:36;;;;;;;5.13;2.80;;;6.20;99.90;;;;;;4174248;28;20724;-50
2021/01/25 04:55:39;;;;;;;4.87;2.30;;;6.20;99.90;;;;;;4174393;28;20454;-50
2021/01/25 04:57:42;;;;;;;5.83;2.80;;;6.20;99.90;;;;;;4173562;28;20290;-48
2021/01/25 04:59:48;;;;;;;4.33;2.83;;;6.20;99.90;;;;;;4173695;28;20037;-45
2021/01/25 05:01:49;;;;;;;4.27;2.10;;;6.20;99.90;;;;;;4173163;28;20094;-48
2021/01/25 05:03:50;;;;;;;3.83;2.43;;;6.20;99.90;;;;;;4174248;28;20032;-47
2021/01/25 05:05:51;;;;;;;3.97;2.60;;;6.20;99.90;;;;;;4173955;28;20690;-44
2021/01/25 05:07:52;;;;;;;6.60;2.60;;;6.20;99.90;;;;;;4173811;28;20471;-49
2021/01/25 05:09:54;;;;;;;9.27;3.13;;;6.30;99.90;;;;;;4174043;28;20286;-48
2021/01/25 05:12:03;;;;;;;4.67;2.50;;;6.30;99.90;;;;;;4174090;28;20045;-48
2021/01/25 05:14:05;;;;;;;9.47;3.27;;;6.30;99.90;;;;;;4173445;28;20687;-45
2021/01/25 05:16:21;;;;;;;6.73;2.50;;;6.30;99.90;;;;;;4171594;28;20282;-46
2021/01/25 05:18:23;;;;;;;2.93;1.93;;;6.30;99.90;;;;;;4172946;28;20086;-47
2021/01/25 05:20:27;;;;;;;4.20;2.43;;;6.30;99.90;;;;;;4173530;28;20079;-44
2021/01/25 05:22:32;;;;;;;4.33;2.20;;;6.30;99.90;;;;;;4172647;28;20270;-45
2021/01/25 05:24:51;;;;;;;3.80;2.20;;;6.30;99.90;;;;;;4172364;28;20285;-45
2021/01/25 05:26:59;;;;;;;7.13;2.47;;;6.30;99.90;;;;;;4171340;28;20294;-44
2021/01/25 05:29:01;;;;;;;5.23;2.87;;;6.30;99.90;;;;;;4173077;28;20328;-45
2021/01/25 05:31:02;;;;;;;4.50;2.63;;;6.30;99.90;;;;;;4173552;28;20079;-46
2021/01/25 05:33:04;;;;;;;8.50;2.70;;;6.40;99.90;;;;;;4173036;28;20914;-46
2021/01/25 05:35:06;;;;;;;6.57;4.43;;;6.40;99.90;;;;;;4173661;28;20025;-49
2021/01/25 05:37:14;;;;;;;6.77;3.53;;;6.40;99.90;;;;;;4172590;28;20278;-46
2021/01/25 05:39:16;;;;;;;5.70;2.80;;;6.40;99.90;;;;;;4171968;28;20280;-48
2021/01/25 05:41:18;;;;;;;5.67;2.53;;;6.40;99.90;;;;;;4173377;28;20045;-46
2021/01/25 05:43:20;;;;;;;5.77;2.90;;;6.50;99.90;;;;;;4173213;28;20332;-51
2021/01/25 05:45:21;;;;;;;5.53;2.57;;;6.40;99.90;;;;;;4173015;28;20274;-47
2021/01/25 05:47:23;;;;;;;6.53;2.83;;;6.40;99.90;;;;;;4172007;28;20327;-44
2021/01/25 05:49:27;;;;;;;4.50;2.40;;;6.40;99.90;;;;;;4172816;28;20545;-44
2021/01/25 05:51:32;;;;;;;5.80;2.50;;;6.40;99.90;;;;;;4172460;28;20505;-48
2021/01/25 05:53:38;;;;;;;5.77;3.40;;;6.30;99.90;;;;;;4173225;28;20286;-49
2021/01/25 05:55:40;;;;;;;6.43;2.77;;;6.30;99.90;;;;;;4173363;28;20025;-47
2021/01/25 05:57:41;;;;;;;5.40;2.73;;;6.30;99.90;;;;;;4172556;28;20266;-42
2021/01/25 05:59:42;;;;;;;5.70;3.30;;;6.30;99.90;;;;;;4172004;28;20110;-49
2021/01/25 06:01:44;;;;;;;7.57;3.80;;;6.20;99.90;;;;;;4172578;28;20127;-41
2021/01/25 06:03:45;;;;;;;9.50;4.60;;;6.20;99.90;;;;;;4172332;28;21119;-47
2021/01/25 06:05:46;;;;;;;7.17;3.57;;;6.20;99.90;;;;;;4172074;28;20037;-50
2021/01/25 06:07:50;;;;;;;8.07;4.13;;;6.20;99.90;;;;;;4172940;28;20095;-49
2021/01/25 06:09:55;;;;;;;8.47;4.27;;;6.10;99.90;;;;;;4172994;28;20319;-43
2021/01/25 06:12:05;;;;;;;8.20;4.60;;;6.10;99.90;;;;;;4173062;28;20045;-43
2021/01/25 06:14:23;;;;;;;11.67;4.83;;;6.10;99.90;;;;;;4172451;28;20270;-47
2021/01/25 06:16:29;;;;;;;9.00;4.30;;;6.10;99.90;;;;;;4172342;28;20553;-48
2021/01/25 06:18:31;;;;;;;9.33;3.93;;;6.10;99.90;;;;;;4172234;28;20478;-48
2021/01/25 06:20:35;;;;;;;11.73;5.43;;;6.20;99.90;;;;;;4172240;28;20274;-44
2021/01/25 06:22:38;;;;;;;7.67;4.10;;;6.20;99.90;;;;;;4172461;28;20428;-46
2021/01/25 06:24:41;;;;;;;5.93;3.53;;;6.20;99.90;;;;;;4172520;28;20029;-45
2021/01/25 06:26:47;;;;;;;7.17;4.50;;;6.20;99.90;;;;;;4172713;28;20505;-46
2021/01/25 06:28:49;;;;;;;4.87;3.20;;;6.20;99.90;;;;;;4172216;28;20579;-50
2021/01/25 06:30:50;;;;;;;6.40;3.50;;;6.20;99.90;;;;;;4172414;28;20071;-44
2021/01/25 06:32:53;;;;;;;7.17;3.23;;;6.20;99.90;;;;;;4172520;28;20420;-45
2021/01/25 06:34:56;;;;;;;5.37;2.83;;;6.20;99.90;;;;;;4172475;28;20274;-47
2021/01/25 06:37:00;;;;;;;3.47;2.50;;;6.10;99.90;;;;;;4172146;28;20289;-42
2021/01/25 06:39:06;;;;;;;5.97;2.90;;;6.10;99.90;;;;;;4172664;28;20311;-48
2021/01/25 06:41:11;;;;;;;4.47;2.50;;;6.00;99.90;;;;;;4173090;28;21132;-48
2021/01/25 06:43:14;;;;;;;6.77;2.77;;;6.00;99.90;;;;;;4172281;28;20298;-44
2021/01/25 06:45:15;;;;;;;5.43;3.57;;;6.00;99.90;;;;;;4171780;28;20650;-46
2021/01/25 06:47:17;;;;;;;8.47;4.10;;;6.00;99.90;;;;;;4172352;28;20754;-48
2021/01/25 06:49:18;;;;;;;2.13;1.30;;;5.90;99.90;;;;;;4172541;28;20327;-48
2021/01/25 06:51:22;;;;;;;6.77;2.67;;;6.00;99.90;;;;;;4172362;28;20693;-49
2021/01/25 06:53:26;;;;;;;4.10;2.33;;;6.00;99.90;;;;;;4170886;28;20332;-44
2021/01/25 06:55:33;;;;;;;5.77;1.57;;;6.10;99.90;;;;;;4172090;28;20423;-47
2021/01/25 06:57:35;;;;;;;2.17;0.87;;;6.20;99.90;;;;;;4172601;28;20352;-52
2021/01/25 06:59:38;;;;;;;1.40;0.90;;;6.40;99.90;;;;;;4171958;28;20281;-46
2021/01/25 07:01:41;;;;;;;1.40;0.67;;;6.70;99.90;;;;;;4171740;28;21125;-49
2021/01/25 07:03:56;;;;;;;0.50;0.40;;;6.80;99.90;;;;;;4169817;28;20053;-47
2021/01/25 07:06:01;;;;;;;0.97;0.40;;;6.90;99.90;;;;;;4170753;28;20104;-45
2021/01/25 07:08:25;;;;;;;0.50;0.20;;;7.10;99.90;;;;;;4171460;28;20049;-46
2021/01/25 07:10:26;;;;;;;0.50;0.33;;;7.20;99.90;;;;;;4172780;28;20420;-47
2021/01/25 07:12:28;;;;;;;1.07;0.50;;;7.20;99.90;;;;;;4171323;28;20037;-44
2021/01/25 07:14:32;;;;;;;7.43;3.00;;;7.30;99.90;;;;;;4174378;28;20115;-54
2021/01/25 07:16:35;;;;;;;0.87;0.40;;;7.30;99.90;;;;;;4175784;28;20041;-46
2021/01/25 07:18:36;;;;;;;2.03;0.90;;;7.40;99.90;;;;;;4175699;28;20079;-44
2021/01/25 07:20:38;;;;;;;0.97;0.70;;;7.40;99.90;;;;;;4175408;28;20074;-44
2021/01/25 07:22:40;;;;;;;0.50;0.20;;;7.30;99.90;;;;;;4174880;28;20440;-44
2021/01/25 07:24:41;;;;;;;0.83;0.50;;;7.40;99.90;;;;;;4171384;28;20036;-42
2021/01/25 07:26:43;;;;;;;0.40;0.30;;;7.30;99.90;;;;;;4171507;28;20037;-41
2021/01/25 07:28:46;;;;;;;0.30;0.20;;;7.30;99.90;;;;;;4172456;28;20089;-56
2021/01/25 07:30:49;;;;;;;0.30;0.10;;;7.30;99.90;;;;;;4173563;28;20111;-44
2021/01/25 07:32:52;;;;;;;0.60;0.20;;;7.20;99.90;;;;;;4174000;28;20053;-51
2021/01/25 07:34:57;;;;;;;0.30;0.17;;;7.20;99.90;;;;;;4174148;28;20083;-44
2021/01/25 07:36:58;;;;;;;0.37;0.10;;;7.10;99.90;;;;;;4173968;28;20118;-44
2021/01/25 07:38:59;;;;;;;0.40;0.10;;;7.10;99.90;;;;;;4172430;28;20038;-49
2021/01/25 07:41:00;;;;;;;0.40;0.20;;;7.10;99.90;;;;;;4172616;28;20425;-38
2021/01/25 07:43:05;;;;;;;0.77;0.10;;;7.10;99.90;;;;;;4168072;28;20053;-40
2021/01/25 07:45:06;;;;;;;0.60;0.20;;;7.10;99.90;;;;;;4174730;28;20393;-46
2021/01/25 07:47:08;;;;;;;2.83;0.50;;;7.10;99.90;;;;;;4174507;28;20512;-38
2021/01/25 07:49:09;;;;;;;0.30;0.20;;;7.10;99.90;;;;;;4175522;28;20087;-45
2021/01/25 07:51:13;;;;;;;2.90;0.80;;;7.20;99.90;;;;;;4175121;28;20848;-44
2021/01/25 07:53:14;;;;;;;4.53;1.20;;;7.20;99.90;;;;;;4175436;28;20060;-37
2021/01/25 07:55:16;;;;;;;3.23;1.93;;;7.30;99.90;;;;;;4174671;28;20556;-37
2021/01/25 07:57:24;;;;;;;3.00;1.13;;;7.40;99.90;;;;;;4174582;28;20036;-37
2021/01/25 07:59:33;;;;;;;1.97;0.70;;;7.50;99.90;;;;;;4175162;28;20446;-44
2021/01/25 08:01:50;;;;;;;2.43;0.90;;;7.50;99.90;;;;;;4174776;28;20122;-49
2021/01/25 08:03:55;;;;;;;1.23;0.40;;;7.50;99.90;;;;;;4174655;28;20040;-36
2021/01/25 08:05:59;;;;;;;2.70;0.60;;;7.60;99.90;;;;;;4175305;28;20056;-47
2021/01/25 08:08:08;;;;;;;1.87;0.33;;;7.60;99.90;;;;;;4175090;28;20107;-38
2021/01/25 08:10:11;;;;;;;6.60;0.50;;;7.50;99.90;;;;;;4172318;28;20440;-46
2021/01/25 08:12:15;;;;;;;3.80;0.13;;;7.60;99.90;;;;;;4174953;28;20053;-40
2021/01/25 08:14:28;;;;;;;1.10;0.47;;;7.60;99.90;;;;;;4175058;28;20071;-42
2021/01/25 08:16:38;;;;;;;4.47;0.40;;;7.60;99.90;;;;;;4175264;28;20582;-37
2021/01/25 08:18:51;;;;;;;3.47;0.47;;;7.60;99.70;;;;;;4174725;28;20098;-40
2021/01/25 08:20:56;;;;;;;3.20;0.50;;;7.60;98.20;;;;;;4174857;28;20092;-37
2021/01/25 08:22:57;;;;;;;2.97;0.30;;;7.60;98.60;;;;;;4174643;28;20099;-45
2021/01/25 08:25:01;;;;;;;2.37;0.47;;;7.60;98.30;;;;;;4170160;28;20036;-44
2021/01/25 08:27:15;;;;;;;1.40;0.30;;;7.60;97.00;;;;;;4173957;28;20040;-44
2021/01/25 08:29:23;;;;;;;1.77;0.20;;;7.70;94.60;;;;;;4174293;28;20433;-49
2021/01/25 08:31:37;;;;;;;3.10;0.20;;;7.60;95.00;;;;;;4174800;28;20094;-50
2021/01/25 08:33:41;;;;;;;0.50;0.17;;;7.50;94.20;;;;;;4174405;28;20559;-46
2021/01/25 08:35:55;;;;;;;4.03;0.47;;;7.40;94.70;;;;;;4174766;28;20094;-40
2021/01/25 08:38:33;;;;;;;1.67;0.40;;;7.30;94.10;;;;;;4173906;28;20045;-57
2021/01/25 08:40:37;;;;;;;0.10;0.07;;;7.30;93.20;;;;;;4170894;28;20052;-53
2021/01/25 08:42:38;;;;;;;0.23;0.20;;;7.10;93.70;;;;;;4174188;28;20049;-40
2021/01/25 08:44:55;;;;;;;0.20;0.00;;;7.00;92.10;;;;;;4173412;28;20565;-41
2021/01/25 08:47:07;;;;;;;1.20;0.10;;;6.80;92.90;;;;;;4172744;28;20044;-40
2021/01/25 08:49:18;;;;;;;3.00;0.17;;;6.80;92.90;;;;;;4174138;28;20040;-41
2021/01/25 08:51:30;;;;;;;0.30;0.00;;;6.70;92.40;;;;;;4173612;28;20083;-40
2021/01/25 08:53:31;;;;;;;2.53;0.30;;;6.80;93.00;;;;;;4173549;28;20122;-37
2021/01/25 08:55:41;;;;;;;0.77;0.10;;;6.70;92.40;;;;;;4174255;28;20612;-36
2021/01/25 08:57:43;;;;;;;0.63;0.20;;;6.60;92.20;;;;;;4174215;28;20028;-39
2021/01/25 08:59:45;;;;;;;4.13;0.20;;;6.50;91.60;;;;;;4174264;28;20286;-41
2021/01/25 09:01:46;;;;;;;1.60;0.20;;;6.50;92.40;;;;;;4174144;28;20049;-49
2021/01/25 09:03:47;;;;;;;27.23;2.00;;;6.50;92.00;;;;;;4172050;28;20103;-41
2021/01/25 09:05:51;;;;;;;6.17;0.57;;;6.40;92.10;;;;;;4173872;28;20286;-36
2021/01/25 09:07:53;;;;;;;3.53;0.67;;;6.40;91.90;;;;;;4174283;28;20340;-37
2021/01/25 09:09:54;;;;;;;1.53;0.40;;;6.50;92.30;;;;;;4173239;28;20098;-35
2021/01/25 09:11:56;;;;;;;7.87;1.23;;;6.50;92.30;;;;;;4174319;28;20282;-35
2021/01/25 09:13:57;;;;;;;1.37;0.50;;;6.50;92.40;;;;;;4173694;28;20044;-46
2021/01/25 09:15:59;;;;;;;4.87;0.63;;;6.50;92.20;;;;;;4173210;28;20037;-51
2021/01/25 09:18:00;;;;;;;2.27;0.27;;;6.50;92.40;;;;;;4172953;28;20067;-41
2021/01/25 09:20:03;;;;;;;1.90;0.20;;;6.50;91.90;;;;;;4172936;28;20091;-39
2021/01/25 09:22:12;;;;;;;8.33;0.67;;;6.40;91.70;;;;;;4173671;28;20040;-42
2021/01/25 09:24:13;;;;;;;20.03;1.53;;;6.40;91.80;;;;;;4172785;28;20052;-40
2021/01/25 09:26:14;;;;;;;1.03;0.20;;;6.40;91.90;;;;;;4171470;28;20033;-49
2021/01/25 09:28:15;;;;;;;0.77;0.40;;;6.30;91.60;;;;;;4172816;28;20083;-40
2021/01/25 09:30:18;;;;;;;6.60;1.47;;;6.30;91.60;;;;;;4171642;28;20795;-44
2021/01/25 09:32:19;;;;;;;2.13;0.50;;;6.30;91.30;;;;;;4173130;28;20403;-41
2021/01/25 09:34:21;;;;;;;0.80;0.33;;;6.20;91.10;;;;;;4173380;28;20293;-43
2021/01/25 09:36:22;;;;;;;4.73;0.57;;;6.10;91.20;;;;;;4173107;28;20045;-38
2021/01/25 09:38:23;;;;;;;1.27;0.40;;;6.10;91.60;;;;;;4173084;28;20320;-37
2021/01/25 09:40:25;;;;;;;4.37;0.40;;;6.10;91.60;;;;;;4173017;28;20086;-39
2021/01/25 09:42:26;;;;;;;6.23;0.50;;;6.10;91.70;;;;;;4172761;28;20294;-42
2021/01/25 09:44:27;;;;;;;5.57;0.77;;;6.00;91.40;;;;;;4173174;28;20320;-55
2021/01/25 09:46:28;;;;;;;4.77;0.40;;;5.90;91.60;;;;;;4172693;28;20754;-46
2021/01/25 09:48:29;;;;;;;1.23;0.47;;;5.90;91.20;;;;;;4173331;28;20273;-47
2021/01/25 09:50:31;;;;;;;6.80;0.93;;;5.90;91.40;;;;;;4173693;28;20323;-49
2021/01/25 09:52:32;;;;;;;0.60;0.13;;;5.90;91.30;;;;;;4172601;28;20305;-37
2021/01/25 09:54:33;;;;;;;0.93;0.40;;;5.90;91.20;;;;;;4171837;28;20332;-42
2021/01/25 09:56:34;;;;;;;1.60;0.60;;;5.80;91.20;;;;;;4171121;28;20274;-44
2021/01/25 09:58:36;;;;;;;2.67;0.10;;;5.70;91.30;;;;;;4173508;28;20619;-48
2021/01/25 10:00:37;;;;;;;3.90;0.60;;;5.70;91.00;;;;;;4172617;28;20274;-45
2021/01/25 10:02:38;;;;;;;1.13;0.20;;;5.70;91.30;;;;;;4171522;28;20327;-50
2021/01/25 10:04:40;;;;;;;2.70;0.30;;;5.60;91.60;;;;;;4168427;28;20312;-41
2021/01/25 10:06:41;;;;;;;2.23;0.53;;;5.70;91.50;;;;;;4170808;28;20329;-37
2021/01/25 10:08:43;;;;;;;2.50;0.43;;;5.70;91.40;;;;;;4171656;28;20321;-44
2021/01/25 10:10:44;;;;;;;1.17;0.30;;;5.70;91.50;;;;;;4173033;28;20336;-38
2021/01/25 10:12:46;;;;;;;4.47;0.70;;;5.70;91.30;;;;;;4172146;28;20332;-46
2021/01/25 10:14:47;;;;;;;4.80;0.53;;;5.70;91.30;;;;;;4171551;28;20839;-45
2021/01/25 10:16:48;;;;;;;3.83;1.10;;;5.60;91.20;;;;;;4171033;28;20278;-46
2021/01/25 10:18:50;;;;;;;13.27;1.83;;;5.70;91.30;;;;;;4166161;28;20359;-49
2021/01/25 10:20:51;;;;;;;4.17;1.50;;;5.70;91.00;;;;;;4171915;28;20286;-52
2021/01/25 10:22:52;;;;;;;6.40;1.80;;;5.60;90.50;;;;;;4171469;28;20331;-44
2021/01/25 10:24:54;;;;;;;2.00;1.10;;;5.70;90.80;;;;;;4172831;28;20262;-57
2021/01/25 10:26:55;;;;;;;4.50;2.37;;;5.70;90.90;;;;;;4172313;28;20250;-51
2021/01/25 10:28:56;;;;;;;2.43;1.90;;;5.70;90.90;;;;;;4172306;28;20352;-51
2021/01/25 10:30:57;;;;;;;3.43;2.13;;;5.70;90.70;;;;;;4170693;28;20746;-52
2021/01/25 10:32:59;;;;;;;4.67;1.10;;;5.70;91.10;;;;;;4171991;28;20343;-50
2021/01/25 10:35:01;;;;;;;0.80;0.80;;;5.60;90.80;;;;;;4172250;28;20340;-53
2021/01/25 10:37:02;;;;;;;3.03;0.87;;;5.50;90.50;;;;;;4171849;28;20316;-55
2021/01/25 10:39:03;;;;;;;4.53;0.83;;;5.50;90.70;;;;;;4171945;28;20304;-52
2021/01/25 10:41:05;;;;;;;2.63;0.90;;;5.60;90.90;;;;;;4170949;28;20352;-56
2021/01/25 10:43:07;;;;;;;1.30;0.70;;;5.50;90.70;;;;;;4171938;28;20615;-51
2021/01/25 10:45:10;;;;;;;5.50;1.00;;;5.60;90.80;;;;;;4172523;28;20297;-57
2021/01/25 10:47:18;;;;;;;2.07;1.20;;;5.50;90.50;;;;;;4172374;28;20262;-51
2021/01/25 10:49:19;;;;;;;8.60;1.07;;;5.40;90.30;;;;;;4171033;28;20269;-56